createdAt,value
2019-03-26T00:01:40.723Z,93669.89
2019-03-26T00:04:09.613Z,93668.33
2019-03-26T00:06:38.607Z,93671.83
2019-03-26T00:09:09.139Z,93649.57
2019-03-26T00:11:38.083Z,93676.36
2019-03-26T00:14:06.934Z,93671.91
2019-03-26T00:16:35.801Z,93681.44
2019-03-26T00:19:04.625Z,93684.02
2019-03-26T00:21:33.485Z,93685.57
2019-03-26T00:24:02.332Z,93683.80
2019-03-26T00:26:31.160Z,93685.64
2019-03-26T00:29:00.053Z,93692.68
2019-03-26T00:31:28.872Z,93693.53
2019-03-26T00:33:57.725Z,93701.08
2019-03-26T00:36:26.556Z,93700.59
2019-03-26T00:38:55.410Z,93707.35
2019-03-26T00:41:24.252Z,93713.17
2019-03-26T00:43:53.082Z,93726.64
2019-03-26T00:46:21.923Z,93734.55
2019-03-26T00:48:50.842Z,93741.00
2019-03-26T00:51:19.711Z,93746.57
2019-03-26T00:53:48.636Z,93742.37
2019-03-26T00:56:17.538Z,93752.13
2019-03-26T00:58:46.423Z,93748.05
2019-03-26T01:01:15.287Z,93750.98
2019-03-26T01:03:44.170Z,93747.30
2019-03-26T01:06:13.028Z,93738.70
2019-03-26T01:08:41.869Z,93756.15
2019-03-26T01:11:10.703Z,93754.31
2019-03-26T01:13:39.533Z,93752.41
2019-03-26T01:16:08.389Z,93757.33
2019-03-26T01:18:37.218Z,93758.56
2019-03-26T01:21:06.051Z,93761.91
2019-03-26T01:23:34.915Z,93755.75
2019-03-26T01:26:03.732Z,93753.53
2019-03-26T01:28:32.608Z,93755.51
2019-03-26T01:31:01.566Z,93753.18
2019-03-26T01:33:30.403Z,93756.52
2019-03-26T01:35:59.242Z,93769.46
2019-03-26T01:38:28.073Z,93764.67
2019-03-26T01:40:56.977Z,93768.73
2019-03-26T01:43:25.821Z,93766.16
2019-03-26T01:45:54.667Z,93769.22
2019-03-26T01:48:23.550Z,93771.55
2019-03-26T01:50:52.419Z,93775.48
2019-03-26T01:53:21.264Z,93776.34
2019-03-26T01:55:50.089Z,93773.73
2019-03-26T01:58:18.938Z,93781.36
2019-03-26T02:00:47.775Z,93778.73
2019-03-26T02:03:16.625Z,93777.86
2019-03-26T02:05:45.462Z,93782.63
2019-03-26T02:08:14.307Z,93793.59
2019-03-26T02:10:43.132Z,93792.95
2019-03-26T02:13:11.987Z,93792.83
2019-03-26T02:15:41.359Z,93792.23
2019-03-26T02:18:10.138Z,93797.28
2019-03-26T02:20:38.830Z,93798.64
2019-03-26T02:23:07.520Z,93797.28
2019-03-26T02:25:36.184Z,93798.80
2019-03-26T02:28:04.868Z,93803.73
2019-03-26T02:30:33.562Z,93810.28
2019-03-26T02:33:02.232Z,93803.23
2019-03-26T02:35:30.920Z,93810.56
2019-03-26T02:37:59.599Z,93813.66
2019-03-26T02:40:28.266Z,93802.06
2019-03-26T02:42:56.973Z,93809.86
2019-03-26T02:45:25.653Z,93819.52
2019-03-26T02:47:54.428Z,93820.64
2019-03-26T02:50:23.129Z,93821.02
2019-03-26T02:52:51.804Z,93818.42
2019-03-26T02:55:20.494Z,93828.55
2019-03-26T02:57:49.168Z,93844.25
2019-03-26T03:00:17.961Z,93841.52
2019-03-26T03:02:46.682Z,93840.91
2019-03-26T03:05:15.459Z,93844.73
2019-03-26T03:07:44.130Z,93850.55
2019-03-26T03:10:13.010Z,93848.20
2019-03-26T03:12:41.705Z,93855.87
2019-03-26T03:15:10.821Z,93861.29
2019-03-26T03:17:39.465Z,93870.54
2019-03-26T03:20:08.141Z,93874.36
2019-03-26T03:22:36.806Z,93874.83
2019-03-26T03:25:06.309Z,93877.18
2019-03-26T03:27:34.997Z,93888.40
2019-03-26T03:30:04.193Z,93891.97
2019-03-26T03:32:32.922Z,93903.06
2019-03-26T03:35:01.596Z,93904.55
2019-03-26T03:37:30.281Z,93914.91
2019-03-26T03:39:58.972Z,93918.08
2019-03-26T03:42:27.657Z,93893.84
2019-03-26T03:44:56.342Z,93933.23
2019-03-26T03:47:27.931Z,93937.38
2019-03-26T03:49:59.245Z,93932.72
2019-03-26T03:52:30.819Z,93935.39
2019-03-26T03:54:59.713Z,93946.73
2019-03-26T03:57:31.303Z,93952.00
2019-03-26T04:00:01.917Z,93956.58
2019-03-26T04:02:30.573Z,93956.58
2019-03-26T04:04:59.305Z,93946.95
2019-03-26T04:07:27.992Z,93956.92
2019-03-26T04:09:56.665Z,93955.28
2019-03-26T04:12:25.375Z,93967.84
2019-03-26T04:14:54.055Z,93972.21
2019-03-26T04:17:22.737Z,93984.55
2019-03-26T04:19:51.380Z,93959.91
2019-03-26T04:22:20.065Z,93972.21
2019-03-26T04:24:48.793Z,93985.09
2019-03-26T04:27:17.512Z,93992.33
2019-03-26T04:29:46.196Z,94005.13
2019-03-26T04:32:14.904Z,94001.11
2019-03-26T04:34:43.605Z,94005.98
2019-03-26T04:37:12.347Z,93979.44
2019-03-26T04:39:41.017Z,94004.41
2019-03-26T04:42:09.705Z,94008.73
2019-03-26T04:44:38.358Z,94005.88
2019-03-26T04:47:07.031Z,94020.63
2019-03-26T04:49:35.715Z,94012.52
2019-03-26T04:52:04.396Z,94020.78
2019-03-26T04:54:33.079Z,94024.91
2019-03-26T04:57:01.739Z,94039.97
2019-03-26T04:59:30.413Z,94036.91
2019-03-26T05:01:59.095Z,94030.38
2019-03-26T05:04:27.797Z,94042.71
2019-03-26T05:06:56.498Z,94041.55
2019-03-26T05:09:25.152Z,94047.38
2019-03-26T05:11:53.897Z,94055.91
2019-03-26T05:14:22.590Z,94057.35
2019-03-26T05:16:51.269Z,94067.23
2019-03-26T05:19:19.935Z,94066.22
2019-03-26T05:21:48.628Z,94061.55
2019-03-26T05:24:17.308Z,94064.17
2019-03-26T05:26:45.980Z,94067.30
2019-03-26T05:29:14.696Z,94075.37
2019-03-26T05:31:43.539Z,94086.47
2019-03-26T05:34:12.223Z,94083.70
2019-03-26T05:36:50.623Z,94086.98
2019-03-26T05:39:11.356Z,94094.34
2019-03-26T05:41:40.034Z,94088.34
2019-03-26T05:44:08.712Z,94097.16
2019-03-26T05:46:37.410Z,94098.16
2019-03-26T05:49:06.091Z,94099.30
2019-03-26T05:51:34.761Z,94089.97
2019-03-26T05:54:03.447Z,94082.38
2019-03-26T05:56:32.154Z,94097.39
2019-03-26T05:59:01.194Z,94096.13
2019-03-26T06:01:29.910Z,94101.32
2019-03-26T06:03:58.687Z,94102.33
2019-03-26T06:06:27.364Z,94096.26
2019-03-26T06:08:56.045Z,94092.05
2019-03-26T06:11:25.775Z,94102.66
2019-03-26T06:13:54.412Z,94108.53
2019-03-26T06:16:23.104Z,94098.25
2019-03-26T06:18:51.792Z,94107.13
2019-03-26T06:21:20.459Z,94104.41
2019-03-26T06:23:49.149Z,94105.08
2019-03-26T06:26:17.832Z,94112.32
2019-03-26T06:28:46.525Z,94106.88
2019-03-26T06:31:15.445Z,94119.62
2019-03-26T06:33:44.697Z,94120.00
2019-03-26T06:36:13.379Z,94121.98
2019-03-26T06:38:42.097Z,94129.27
2019-03-26T06:41:10.925Z,94123.20
2019-03-26T06:43:39.788Z,94134.31
2019-03-26T06:46:08.490Z,94135.93
2019-03-26T06:48:37.183Z,94136.17
2019-03-26T06:51:05.863Z,94123.45
2019-03-26T06:53:34.569Z,94133.22
2019-03-26T06:56:03.358Z,94134.46
2019-03-26T06:58:32.103Z,94130.11
2019-03-26T07:01:00.948Z,94137.41
2019-03-26T07:03:29.629Z,94137.09
2019-03-26T07:05:58.343Z,94131.15
2019-03-26T07:08:27.049Z,94142.21
2019-03-26T07:10:55.751Z,94145.01
2019-03-26T07:13:24.441Z,94133.97
2019-03-26T07:15:53.142Z,94141.02
2019-03-26T07:18:21.931Z,94145.17
2019-03-26T07:20:50.697Z,94140.82
2019-03-26T07:23:25.716Z,94132.33
2019-03-26T07:25:54.404Z,94133.91
2019-03-26T07:28:23.419Z,94142.17
2019-03-26T07:30:52.139Z,94135.95
2019-03-26T07:33:20.831Z,94136.39
2019-03-26T07:35:49.668Z,94150.48
2019-03-26T07:38:18.839Z,94148.21
2019-03-26T07:40:47.812Z,94148.88
2019-03-26T07:43:16.538Z,94150.34
2019-03-26T07:45:45.727Z,94157.58
2019-03-26T07:48:14.666Z,94145.78
2019-03-26T07:50:43.532Z,94156.38
2019-03-26T07:53:12.363Z,94151.48
2019-03-26T07:55:43.709Z,94158.17
2019-03-26T07:58:11.532Z,94165.02
2019-03-26T08:00:40.222Z,94162.97
2019-03-26T08:03:09.125Z,94148.48
2019-03-26T08:05:38.003Z,94172.13
2019-03-26T08:08:06.796Z,94180.55
2019-03-26T08:10:35.478Z,94175.50
2019-03-26T08:13:04.282Z,94171.75
2019-03-26T08:15:34.395Z,94173.83
2019-03-26T08:18:04.900Z,94174.00
2019-03-26T08:20:34.039Z,94172.23
2019-03-26T08:23:02.883Z,94173.15
2019-03-26T08:25:33.862Z,94172.94
2019-03-26T08:28:04.947Z,94174.23
2019-03-26T08:30:32.697Z,94187.20
2019-03-26T08:33:01.442Z,94176.37
2019-03-26T08:35:30.191Z,94174.09
2019-03-26T08:38:11.397Z,94174.86
2019-03-26T08:40:29.411Z,94182.47
2019-03-26T08:42:58.171Z,94188.73
2019-03-26T08:45:26.906Z,94192.87
2019-03-26T08:47:55.618Z,94179.67
2019-03-26T08:50:24.351Z,94190.83
2019-03-26T08:52:53.046Z,94189.11
2019-03-26T08:55:21.748Z,94193.09
2019-03-26T08:57:50.534Z,94186.94
2019-03-26T09:00:20.554Z,94185.45
2019-03-26T09:02:49.360Z,94184.24
2019-03-26T09:05:18.267Z,94186.95
2019-03-26T09:07:47.052Z,94183.56
2019-03-26T09:10:15.858Z,94183.43
2019-03-26T09:12:44.958Z,94191.28
2019-03-26T09:15:14.797Z,94187.86
2019-03-26T09:17:44.637Z,94190.19
2019-03-26T09:20:14.463Z,94192.20
2019-03-26T09:22:43.585Z,94187.34
2019-03-26T09:25:12.753Z,94192.84
2019-03-26T09:27:41.511Z,94189.12
2019-03-26T09:30:13.111Z,94196.27
2019-03-26T09:32:41.801Z,94197.92
2019-03-26T09:35:14.679Z,94168.92
2019-03-26T09:37:43.697Z,94190.38
2019-03-26T09:40:12.944Z,94199.39
2019-03-26T09:42:41.719Z,94199.25
2019-03-26T09:45:11.853Z,94192.33
2019-03-26T09:47:40.623Z,94194.73
2019-03-26T09:50:11.342Z,94198.44
2019-03-26T09:52:40.037Z,94210.34
2019-03-26T09:55:09.383Z,94205.26
2019-03-26T09:57:38.453Z,94177.18
2019-03-26T10:00:11.893Z,94211.50
2019-03-26T10:02:43.042Z,94220.12
2019-03-26T10:05:12.032Z,94212.83
2019-03-26T10:07:40.898Z,94220.82
2019-03-26T10:10:10.513Z,94218.11
2019-03-26T10:12:41.645Z,94220.30
2019-03-26T10:15:11.056Z,94212.38
2019-03-26T10:17:39.996Z,94225.09
2019-03-26T10:20:09.656Z,94223.57
2019-03-26T10:22:38.549Z,94210.55
2019-03-26T10:25:11.315Z,94216.94
2019-03-26T10:27:40.308Z,94225.89
2019-03-26T10:30:12.271Z,94223.06
2019-03-26T10:32:41.328Z,94220.48
2019-03-26T10:35:10.400Z,94220.41
2019-03-26T10:37:39.310Z,94220.75
2019-03-26T10:40:10.206Z,94214.48
2019-03-26T10:42:38.930Z,94210.94
2019-03-26T10:45:08.350Z,94213.56
2019-03-26T10:47:37.244Z,94217.75
2019-03-26T10:50:07.443Z,94222.88
2019-03-26T10:52:36.136Z,94121.05
2019-03-26T10:55:06.453Z,94221.59
2019-03-26T10:57:36.227Z,94208.27
2019-03-26T11:00:09.198Z,94222.78
2019-03-26T11:02:40.395Z,94220.68
2019-03-26T11:05:10.173Z,94224.69
2019-03-26T11:07:39.017Z,94231.03
2019-03-26T11:10:08.890Z,94231.00
2019-03-26T11:12:37.772Z,94223.06
2019-03-26T11:15:07.811Z,94209.02
2019-03-26T11:17:37.680Z,94224.39
2019-03-26T11:20:07.691Z,94205.00
2019-03-26T11:22:36.529Z,94220.37
2019-03-26T11:25:12.225Z,94217.43
2019-03-26T11:27:41.021Z,94217.27
2019-03-26T11:30:10.542Z,94217.78
2019-03-26T11:32:39.333Z,94226.36
2019-03-26T11:35:09.687Z,94216.25
2019-03-26T11:37:39.161Z,94216.98
2019-03-26T11:40:08.658Z,94223.30
2019-03-26T11:42:37.474Z,94223.31
2019-03-26T11:45:09.323Z,94221.98
2019-03-26T11:47:39.934Z,94213.95
2019-03-26T11:50:09.028Z,94234.30
2019-03-26T11:52:38.379Z,94233.30
2019-03-26T11:55:08.375Z,94234.30
2019-03-26T11:57:37.076Z,94243.28
2019-03-26T12:00:14.436Z,94240.55
2019-03-26T12:02:43.187Z,94258.03
2019-03-26T12:05:12.520Z,94232.48
2019-03-26T12:07:42.912Z,94235.23
2019-03-26T12:10:12.205Z,94231.64
2019-03-26T12:12:40.911Z,94239.63
2019-03-26T12:15:10.511Z,94241.25
2019-03-26T12:17:39.203Z,94234.55
2019-03-26T12:20:09.192Z,94232.98
2019-03-26T12:22:37.898Z,94246.70
2019-03-26T12:25:07.515Z,94248.67
2019-03-26T12:27:37.000Z,94215.25
2019-03-26T12:30:07.971Z,94248.22
2019-03-26T12:32:37.000Z,94250.20
2019-03-26T12:35:08.622Z,94252.72
2019-03-26T12:37:37.309Z,94257.41
2019-03-26T12:40:07.459Z,94270.03
2019-03-26T12:42:36.323Z,94279.74
2019-03-26T12:45:07.274Z,94275.02
2019-03-26T12:47:36.302Z,94284.02
2019-03-26T12:50:07.412Z,94283.88
2019-03-26T12:52:36.334Z,94293.41
2019-03-26T12:55:06.080Z,94284.59
2019-03-26T12:57:34.806Z,94293.19
2019-03-26T13:00:03.556Z,94300.08
2019-03-26T13:02:35.685Z,94300.78
2019-03-26T13:05:02.988Z,94303.08
2019-03-26T13:07:31.697Z,94306.24
2019-03-26T13:10:12.613Z,94311.70
2019-03-26T13:12:30.822Z,94316.91
2019-03-26T13:14:59.632Z,94313.31
2019-03-26T13:17:28.295Z,94311.56
2019-03-26T13:19:57.000Z,94299.09
2019-03-26T13:22:25.750Z,94318.14
2019-03-26T13:24:54.529Z,94316.38
2019-03-26T13:27:23.287Z,94313.52
2019-03-26T13:29:51.949Z,94312.99
2019-03-26T13:32:20.754Z,94311.98
2019-03-26T13:34:51.496Z,94311.36
2019-03-26T13:37:21.741Z,94313.73
2019-03-26T13:39:51.269Z,94312.95
2019-03-26T13:42:19.969Z,94310.23
2019-03-26T13:44:48.703Z,94318.36
2019-03-26T13:47:17.422Z,94313.88
2019-03-26T13:49:46.177Z,94313.48
2019-03-26T13:52:15.026Z,94314.64
2019-03-26T13:54:43.751Z,94310.01
2019-03-26T13:57:12.464Z,94310.56
2019-03-26T13:59:41.230Z,94315.51
2019-03-26T14:02:10.120Z,94318.02
2019-03-26T14:04:38.819Z,94320.73
2019-03-26T14:07:07.519Z,94314.56
2019-03-26T14:09:36.210Z,94320.94
2019-03-26T14:12:05.031Z,94317.55
2019-03-26T14:14:33.791Z,94314.25
2019-03-26T14:17:05.485Z,94311.59
2019-03-26T14:19:33.176Z,94317.14
2019-03-26T14:22:01.985Z,94318.90
2019-03-26T14:24:30.982Z,94315.77
2019-03-26T14:26:59.702Z,94323.94
2019-03-26T14:29:28.491Z,94327.86
2019-03-26T14:31:57.179Z,94329.39
2019-03-26T14:34:25.899Z,94328.00
2019-03-26T14:36:54.679Z,94333.92
2019-03-26T14:39:23.438Z,94332.73
2019-03-26T14:41:52.263Z,94327.59
2019-03-26T14:44:21.139Z,94321.08
2019-03-26T14:46:49.855Z,94326.16
2019-03-26T14:49:18.688Z,94327.22
2019-03-26T14:51:47.402Z,94325.87
2019-03-26T14:54:16.181Z,94325.28
2019-03-26T14:56:45.049Z,94324.91
2019-03-26T14:59:13.848Z,94325.55
2019-03-26T15:01:44.634Z,94323.73
2019-03-26T15:04:13.475Z,94330.08
2019-03-26T15:06:45.392Z,94329.72
2019-03-26T15:09:14.430Z,94329.39
2019-03-26T15:11:43.174Z,94329.25
2019-03-26T15:14:12.017Z,94329.95
2019-03-26T15:16:40.682Z,94330.83
2019-03-26T15:19:09.372Z,94334.89
2019-03-26T15:21:38.099Z,94331.91
2019-03-26T15:24:06.839Z,94335.67
2019-03-26T15:26:35.603Z,94335.91
2019-03-26T15:29:04.392Z,94336.63
2019-03-26T15:31:33.109Z,94336.81
2019-03-26T15:34:01.893Z,94344.04
2019-03-26T15:36:30.666Z,94348.34
2019-03-26T15:38:59.463Z,94352.82
2019-03-26T15:41:30.298Z,94352.97
2019-03-26T15:43:58.695Z,94361.09
2019-03-26T15:46:27.447Z,94365.67
2019-03-26T15:48:56.948Z,94370.34
2019-03-26T15:51:25.716Z,94373.05
2019-03-26T15:53:54.415Z,94366.78
2019-03-26T15:56:23.187Z,94369.33
2019-03-26T15:58:52.254Z,94366.63
2019-03-26T16:01:24.285Z,94370.06
2019-03-26T16:03:51.553Z,94369.27
2019-03-26T16:06:20.237Z,94375.70
2019-03-26T16:08:49.069Z,94370.63
2019-03-26T16:11:17.768Z,94372.06
2019-03-26T16:13:46.451Z,94371.20
2019-03-26T16:16:15.133Z,94371.86
2019-03-26T16:18:43.850Z,94369.90
2019-03-26T16:21:12.559Z,94368.89
2019-03-26T16:23:41.410Z,94377.40
2019-03-26T16:26:10.098Z,94376.99
2019-03-26T16:28:38.763Z,94375.87
2019-03-26T16:31:07.560Z,94376.06
2019-03-26T16:33:36.224Z,94381.25
2019-03-26T16:36:05.129Z,94382.88
2019-03-26T16:38:33.815Z,94385.98
2019-03-26T16:41:02.509Z,94385.98
2019-03-26T16:43:31.197Z,94386.09
2019-03-26T16:45:59.988Z,94385.60
2019-03-26T16:48:28.661Z,94387.94
2019-03-26T16:50:57.493Z,94391.06
2019-03-26T16:53:26.175Z,94393.95
2019-03-26T16:55:54.893Z,94394.84
2019-03-26T16:58:23.579Z,94396.02
2019-03-26T17:00:52.272Z,94401.59
2019-03-26T17:03:30.742Z,94400.88
2019-03-26T17:05:51.353Z,94404.95
2019-03-26T17:08:22.683Z,94405.47
2019-03-26T17:10:50.661Z,94411.16
2019-03-26T17:13:19.356Z,94410.20
2019-03-26T17:15:48.093Z,94420.09
2019-03-26T17:18:16.864Z,94423.73
2019-03-26T17:20:45.561Z,94421.16
2019-03-26T17:23:14.253Z,94423.88
2019-03-26T17:25:42.952Z,94428.58
2019-03-26T17:28:11.628Z,94433.01
2019-03-26T17:30:40.314Z,94432.52
2019-03-26T17:33:09.090Z,94436.95
2019-03-26T17:35:37.786Z,94431.59
2019-03-26T17:38:06.491Z,94440.91
2019-03-26T17:40:35.198Z,94447.35
2019-03-26T17:43:03.973Z,94446.06
2019-03-26T17:45:32.673Z,94453.70
2019-03-26T17:48:01.353Z,94455.75
2019-03-26T17:50:30.033Z,94459.97
2019-03-26T17:52:58.797Z,94464.43
2019-03-26T17:55:27.466Z,94465.79
2019-03-26T17:57:56.217Z,94469.79
2019-03-26T18:00:39.562Z,94474.08
2019-03-26T18:03:08.381Z,94478.78
2019-03-26T18:05:37.077Z,94491.74
2019-03-26T18:08:05.907Z,94487.21
2019-03-26T18:10:34.669Z,94493.89
2019-03-26T18:13:03.369Z,94490.06
2019-03-26T18:15:32.043Z,94494.91
2019-03-26T18:18:00.754Z,94506.37
2019-03-26T18:20:32.703Z,94509.84
2019-03-26T18:22:59.844Z,94507.06
2019-03-26T18:25:28.500Z,94510.80
2019-03-26T18:27:57.179Z,94513.64
2019-03-26T18:30:25.857Z,94519.28
2019-03-26T18:32:54.569Z,94520.39
2019-03-26T18:35:23.476Z,94523.66
2019-03-26T18:37:52.145Z,94527.87
2019-03-26T18:40:20.822Z,94531.00
2019-03-26T18:42:49.497Z,94526.27
2019-03-26T18:45:18.185Z,94527.91
2019-03-26T18:47:46.871Z,94531.84
2019-03-26T18:50:16.332Z,94531.98
2019-03-26T18:52:45.022Z,94534.97
2019-03-26T18:55:13.772Z,94535.73
2019-03-26T18:57:42.666Z,94537.20
2019-03-26T19:00:17.333Z,94534.71
2019-03-26T19:02:46.010Z,94539.92
2019-03-26T19:05:15.176Z,94541.36
2019-03-26T19:07:43.869Z,94546.80
2019-03-26T19:10:24.374Z,94541.50
2019-03-26T19:12:57.091Z,94542.77
2019-03-26T19:15:23.557Z,94546.05
2019-03-26T19:17:52.320Z,94543.67
2019-03-26T19:20:21.029Z,94547.46
2019-03-26T19:22:49.737Z,94547.80
2019-03-26T19:25:18.429Z,94550.51
2019-03-26T19:27:47.112Z,94553.08
2019-03-26T19:30:15.858Z,94546.58
2019-03-26T19:32:44.611Z,94550.56
2019-03-26T19:35:13.600Z,94547.98
2019-03-26T19:37:42.318Z,94562.36
2019-03-26T19:40:11.197Z,94559.23
2019-03-26T19:42:39.917Z,94570.30
2019-03-26T19:45:10.271Z,94564.91
2019-03-26T19:47:38.953Z,94567.23
2019-03-26T19:50:09.182Z,94564.70
2019-03-26T19:52:37.877Z,94538.30
2019-03-26T19:55:07.754Z,94569.50
2019-03-26T19:57:36.839Z,94569.46
2019-03-26T20:00:14.365Z,94572.22
2019-03-26T20:02:43.030Z,94574.70
2019-03-26T20:05:12.510Z,94578.22
2019-03-26T20:07:41.292Z,94585.05
2019-03-26T20:10:11.978Z,94584.64
2019-03-26T20:12:40.616Z,94589.22
2019-03-26T20:15:11.217Z,94580.69
2019-03-26T20:17:39.878Z,94587.51
2019-03-26T20:20:09.938Z,94587.73
2019-03-26T20:22:39.236Z,94591.55
2019-03-26T20:25:08.602Z,94582.39
2019-03-26T20:27:37.265Z,94593.07
2019-03-26T20:30:07.634Z,94592.55
2019-03-26T20:32:36.303Z,94594.56
2019-03-26T20:35:07.651Z,94603.02
2019-03-26T20:37:36.332Z,94599.59
2019-03-26T20:40:08.068Z,94601.75
2019-03-26T20:42:36.791Z,94603.75
2019-03-26T20:45:08.964Z,94601.58
2019-03-26T20:47:37.876Z,94608.73
2019-03-26T20:50:08.336Z,94604.37
2019-03-26T20:52:37.704Z,94616.33
2019-03-26T20:55:08.841Z,94600.41
2019-03-26T20:57:37.752Z,94608.36
2019-03-26T21:00:09.610Z,94612.48
2019-03-26T21:02:38.303Z,94621.16
2019-03-26T21:05:08.266Z,94612.35
2019-03-26T21:07:38.136Z,94569.36
2019-03-26T21:10:10.995Z,94622.52
2019-03-26T21:12:40.791Z,94623.47
2019-03-26T21:15:10.471Z,94623.16
2019-03-26T21:17:39.228Z,94632.00
2019-03-26T21:20:09.565Z,94639.83
2019-03-26T21:22:38.231Z,94637.56
2019-03-26T21:25:08.552Z,94642.73
2019-03-26T21:27:37.235Z,94648.45
2019-03-26T21:30:11.600Z,94650.37
2019-03-26T21:32:39.244Z,94652.05
2019-03-26T21:35:08.811Z,94659.06
2019-03-26T21:37:38.683Z,94658.34
2019-03-26T21:40:08.491Z,94667.97
2019-03-26T21:42:37.164Z,94666.15
2019-03-26T21:45:07.839Z,94680.61
2019-03-26T21:47:36.584Z,94678.85
2019-03-26T21:50:08.920Z,94683.02
2019-03-26T21:52:37.593Z,94679.66
2019-03-26T21:55:08.799Z,94680.39
2019-03-26T21:57:37.471Z,94685.12
2019-03-26T22:00:09.329Z,94686.00
2019-03-26T22:02:38.017Z,94693.80
2019-03-26T22:05:08.389Z,94697.69
2019-03-26T22:07:37.037Z,94604.37
2019-03-26T22:10:06.846Z,94656.06
2019-03-26T22:12:35.525Z,94704.09
2019-03-26T22:15:06.811Z,94703.65
2019-03-26T22:17:35.473Z,94703.65
2019-03-26T22:20:05.557Z,94701.21
2019-03-26T22:22:34.241Z,94706.67
2019-03-26T22:25:02.945Z,94689.95
2019-03-26T22:27:31.608Z,94700.96
2019-03-26T22:30:00.392Z,94701.89
2019-03-26T22:32:29.136Z,94703.56
2019-03-26T22:34:57.803Z,94707.62
2019-03-26T22:37:26.583Z,94708.62
2019-03-26T22:39:55.240Z,94708.30
2019-03-26T22:42:23.928Z,94710.54
2019-03-26T22:44:52.613Z,94705.42
2019-03-26T22:47:21.315Z,94714.28
2019-03-26T22:49:49.992Z,94707.98
2019-03-26T22:52:18.677Z,94714.11
2019-03-26T22:54:47.357Z,94715.77
2019-03-26T22:57:16.022Z,94718.03
2019-03-26T22:59:44.711Z,94719.26
2019-03-26T23:02:13.400Z,94715.47
2019-03-26T23:04:42.206Z,94720.71
2019-03-26T23:07:10.877Z,94718.55
2019-03-26T23:09:39.564Z,94716.73
2019-03-26T23:12:08.260Z,94720.95
2019-03-26T23:14:45.020Z,94708.36
2019-03-26T23:17:07.357Z,94720.21
2019-03-26T23:19:36.024Z,94721.27
2019-03-26T23:22:04.803Z,94723.19
2019-03-26T23:24:33.500Z,94728.34
2019-03-26T23:27:02.162Z,94719.93
2019-03-26T23:29:30.829Z,94723.78
2019-03-26T23:31:59.501Z,94726.50
2019-03-26T23:34:28.393Z,94723.80
2019-03-26T23:36:57.076Z,94724.41
2019-03-26T23:39:25.743Z,94721.83
2019-03-26T23:41:54.433Z,94729.63
2019-03-26T23:44:25.960Z,94731.60
2019-03-26T23:46:53.511Z,94729.47
2019-03-26T23:49:22.169Z,94728.58
2019-03-26T23:51:50.847Z,94729.94
2019-03-26T23:54:19.646Z,94725.86
2019-03-26T23:56:48.322Z,94723.17
2019-03-26T23:59:16.995Z,94723.18
